New Century 1 — H9LA — position and weather

sailwx.info

Track history (hours):
 
Tides and Currents Weather Stations Pressure Air Temp Water Temp Dewpoint Dewpoint Depression Visibility Wind Speed Wind Dir Waves Ship Positions

New Century 1

Last reported at 2017-Feb-14 00:00 UTC. Time now 2017-Feb-25 02:23 UTC.
Position N 46°42' W 152°00'.
Warning: this ship's position is 11 days out of date.

Length 200 m; beam 32.3 m.

Type: Cargo ship. MMSI: 355234000.

Wind from 260 at 12 knots

Barometer 974.0 mb
Air temperature 4.1 ° C
Visibility: greater than 27.0 NM
Dewpoint 3.5 ° C

Date/timePositionNaut miles runAvg speedWind from/ knotsBaromVisibWave heightAir tempDewpointWater temp
2017-Feb-14 00:00N 46°42' W 152°00'   260 / 12974.027.0 4.1 3.5
2017-Feb-11 06:00N 46°30' W 131°12'23412.0 290 / 221022.010.8 11.0 9.2 8.0
2017-Feb-10 10:24N 48°07' W 125°57'1112.6
2017-Feb-10 09:33N 48°13' W 125°45'1312.7
2017-Feb-10 08:33N 48°21' W 125°29'1313.1
2017-Feb-10 07:34N 48°29' W 125°13'1515.4
2017-Feb-10 06:34N 48°31' W 124°50'1818.0
2017-Feb-10 05:34N 48°25' W 124°24'1919.4
2017-Feb-10 04:34N 48°18' W 123°57'1918.8
2017-Feb-10 03:33N 48°17' W 123°29'1211.9
2017-Feb-10 02:33N 48°24' W 123°15'1919.0
2017-Feb-10 01:33N 48°43' W 123°13'1313.1
2017-Feb-10 00:33N 48°56' W 123°10'1211.8
2017-Feb-09 23:33N 49°07' W 123°16'1211.7
2017-Feb-09 22:33N 49°09' W 122°59'3 2.8
2017-Feb-09 21:32N 49°11' W 122°55'0 0.0
2017-Feb-09 20:32N 49°11' W 122°55'0 0.0
2017-Feb-09 19:32N 49°11' W 122°55'0 0.0
2017-Feb-09 18:32N 49°11' W 122°55'0 0.0
2017-Feb-09 17:32N 49°11' W 122°55'0 0.0
2017-Feb-09 16:32N 49°11' W 122°55'0 0.0
2017-Feb-09 15:32N 49°11' W 122°55'0 0.0
2017-Feb-09 14:32N 49°11' W 122°55'0 0.0
2017-Feb-09 13:32N 49°11' W 122°55'0 0.0
2017-Feb-09 12:32N 49°11' W 122°55'0 0.0
2017-Feb-09 11:32N 49°11' W 122°55'0 0.0
2017-Feb-09 10:32N 49°11' W 122°55'0 0.0
2017-Feb-09 09:32N 49°11' W 122°55'0 0.0
2017-Feb-09 08:32N 49°11' W 122°55'0 0.0
2017-Feb-09 07:32N 49°11' W 122°55'0 0.0
2017-Feb-09 06:32N 49°11' W 122°55'0 0.0
2017-Feb-09 05:32N 49°11' W 122°55'0 0.0
2017-Feb-09 04:29N 49°11' W 122°55'0 0.0
2017-Feb-09 03:32N 49°11' W 122°55'0 0.0
2017-Feb-09 02:32N 49°11' W 122°55'0 0.4
2017-Feb-09 01:33N 49°11' W 122°55'9 8.9
2017-Feb-09 00:34N 49°07' W 123°07'8 8.4
2017-Feb-08 23:34N 49°03' W 123°19'1212.2
2017-Feb-08 22:34N 48°55' W 123°06'1312.8
2017-Feb-08 21:34N 48°42' W 123°12'1616.4
2017-Feb-08 20:34N 48°26' W 123°10'1110.8
2017-Feb-08 19:33N 48°20' W 123°24'7 7.2
2017-Feb-08 18:33N 48°14' W 123°30'1312.3
2017-Feb-08 17:32N 48°13' W 123°49'1110.8
2017-Feb-08 16:33N 48°16' W 124°04'1515.3
2017-Feb-08 15:33N 48°23' W 124°25'1616.0
2017-Feb-08 14:33N 48°29' W 124°47'1313.3
2017-Feb-08 13:33N 48°22' W 125°04'1918.1
2017-Feb-08 12:31N 48°04' W 125°13'5618.2
2017-Feb-08 09:26N 47°08' W 124°60'1618.7
2017-Feb-08 08:33N 46°54' W 124°50'1918.8
2017-Feb-08 07:33N 46°37' W 124°38'1918.7
2017-Feb-08 06:33N 46°21' W 124°23'1413.7
2017-Feb-08 05:33N 46°15' W 124°05'1110.5
2017-Feb-08 04:33N 46°12' W 123°51'9 9.4
2017-Feb-08 03:33N 46°16' W 123°38'1111.0
2017-Feb-08 02:33N 46°10' W 123°25'1414.4
2017-Feb-08 01:33N 46°10' W 123°04'1313.2
2017-Feb-08 00:33N 45°60' W 122°51'1413.9
2017-Feb-07 23:33N 45°46' W 122°46'1110.6
2017-Feb-07 22:34N 45°36' W 122°47'0 0.0
2017-Feb-07 21:31N 45°36' W 122°47'0 0.0
2017-Feb-07 20:22N 45°36' W 122°47'0 0.0
2017-Feb-07 19:28N 45°36' W 122°47'0 0.0
2017-Feb-07 18:31N 45°36' W 122°47'0 0.0
2017-Feb-07 17:31N 45°36' W 122°47'0 0.0
2017-Feb-07 16:28N 45°36' W 122°47'0 0.0
2017-Feb-07 15:28N 45°36' W 122°47'0 0.0
2017-Feb-07 14:31N 45°36' W 122°47'0 0.0
2017-Feb-07 13:25N 45°36' W 122°47'0 0.0
2017-Feb-07 12:31N 45°36' W 122°47'0 0.0
2017-Feb-07 11:31N 45°36' W 122°47'0 0.0
2017-Feb-07 10:31N 45°36' W 122°47'0 0.0
2017-Feb-07 09:31N 45°36' W 122°47'0 0.0
2017-Feb-07 08:25N 45°36' W 122°47'0 0.0
2017-Feb-07 07:31N 45°36' W 122°47'0 0.0
2017-Feb-07 06:31N 45°36' W 122°47'0 0.0
2017-Feb-07 05:31N 45°36' W 122°47'0 0.0
2017-Feb-07 04:28N 45°36' W 122°47'0 0.0
2017-Feb-07 03:31N 45°36' W 122°47'0 0.0
2017-Feb-07 02:28N 45°36' W 122°47'0 0.0
2017-Feb-07 01:32N 45°36' W 122°47'0 0.0
2017-Feb-07 00:28N 45°36' W 122°47'0 0.0
2017-Feb-06 23:31N 45°36' W 122°47'0 0.1
2017-Feb-06 22:34N 45°36' W 122°47'7 7.3
2017-Feb-06 21:34N 45°43' W 122°46'1211.9
2017-Feb-06 20:33N 45°55' W 122°49'1111.4
2017-Feb-06 19:34N 46°05' W 122°55'1312.5
2017-Feb-06 18:33N 46°11' W 123°11'1010.2
2017-Feb-06 17:33N 46°12' W 123°26'1212.1
2017-Feb-06 16:34N 46°14' W 123°43'1111.0
2017-Feb-06 15:34N 46°14' W 123°59'1414.0
2017-Feb-06 14:33N 46°12' W 124°19'3 2.5
2017-Feb-06 13:34N 46°11' W 124°22'1010.3
2017-Feb-06 12:34N 46°11' W 124°37'1616.2
2017-Feb-06 11:33N 46°11' W 125°00'1616.3
2017-Feb-06 10:34N 46°12' W 125°24'  
Track history (hours):
 
Tides and Currents Weather Stations Pressure Air Temp Water Temp Dewpoint Dewpoint Depression Visibility Wind Speed Wind Dir Waves Ship Positions

New Century 1

Last reported at 2017-Feb-14 00:00 UTC. Time now 2017-Feb-25 02:23 UTC.
Position N 46°42' W 152°00'.
Warning: this ship's position is 11 days out of date.

Length 200 m; beam 32.3 m.

Type: Cargo ship. MMSI: 355234000.

Wind from 260 at 12 knots

Barometer 974.0 mb
Air temperature 4.1 ° C
Visibility: greater than 27.0 NM
Dewpoint 3.5 ° C

Date/timePositionNaut miles runAvg speedWind from/ knotsBaromVisibWave heightAir tempDewpointWater temp
2017-Feb-14 00:00N 46°42' W 152°00'   260 / 12974.027.0 4.1 3.5
2017-Feb-11 06:00N 46°30' W 131°12'23412.0 290 / 221022.010.8 11.0 9.2 8.0
2017-Feb-10 10:24N 48°07' W 125°57'1112.6
2017-Feb-10 09:33N 48°13' W 125°45'1312.7
2017-Feb-10 08:33N 48°21' W 125°29'1313.1
2017-Feb-10 07:34N 48°29' W 125°13'1515.4
2017-Feb-10 06:34N 48°31' W 124°50'1818.0
2017-Feb-10 05:34N 48°25' W 124°24'1919.4
2017-Feb-10 04:34N 48°18' W 123°57'1918.8
2017-Feb-10 03:33N 48°17' W 123°29'1211.9
2017-Feb-10 02:33N 48°24' W 123°15'1919.0
2017-Feb-10 01:33N 48°43' W 123°13'1313.1
2017-Feb-10 00:33N 48°56' W 123°10'1211.8
2017-Feb-09 23:33N 49°07' W 123°16'1211.7
2017-Feb-09 22:33N 49°09' W 122°59'3 2.8
2017-Feb-09 21:32N 49°11' W 122°55'0 0.0
2017-Feb-09 20:32N 49°11' W 122°55'0 0.0
2017-Feb-09 19:32N 49°11' W 122°55'0 0.0
2017-Feb-09 18:32N 49°11' W 122°55'0 0.0
2017-Feb-09 17:32N 49°11' W 122°55'0 0.0
2017-Feb-09 16:32N 49°11' W 122°55'0 0.0
2017-Feb-09 15:32N 49°11' W 122°55'0 0.0
2017-Feb-09 14:32N 49°11' W 122°55'0 0.0
2017-Feb-09 13:32N 49°11' W 122°55'0 0.0
2017-Feb-09 12:32N 49°11' W 122°55'0 0.0
2017-Feb-09 11:32N 49°11' W 122°55'0 0.0
2017-Feb-09 10:32N 49°11' W 122°55'0 0.0
2017-Feb-09 09:32N 49°11' W 122°55'0 0.0
2017-Feb-09 08:32N 49°11' W 122°55'0 0.0
2017-Feb-09 07:32N 49°11' W 122°55'0 0.0
2017-Feb-09 06:32N 49°11' W 122°55'0 0.0
2017-Feb-09 05:32N 49°11' W 122°55'0 0.0
2017-Feb-09 04:29N 49°11' W 122°55'0 0.0
2017-Feb-09 03:32N 49°11' W 122°55'0 0.0
2017-Feb-09 02:32N 49°11' W 122°55'0 0.4
2017-Feb-09 01:33N 49°11' W 122°55'9 8.9
2017-Feb-09 00:34N 49°07' W 123°07'8 8.4
2017-Feb-08 23:34N 49°03' W 123°19'1212.2
2017-Feb-08 22:34N 48°55' W 123°06'1312.8
2017-Feb-08 21:34N 48°42' W 123°12'1616.4
2017-Feb-08 20:34N 48°26' W 123°10'1110.8
2017-Feb-08 19:33N 48°20' W 123°24'7 7.2
2017-Feb-08 18:33N 48°14' W 123°30'1312.3
2017-Feb-08 17:32N 48°13' W 123°49'1110.8
2017-Feb-08 16:33N 48°16' W 124°04'1515.3
2017-Feb-08 15:33N 48°23' W 124°25'1616.0
2017-Feb-08 14:33N 48°29' W 124°47'1313.3
2017-Feb-08 13:33N 48°22' W 125°04'1918.1
2017-Feb-08 12:31N 48°04' W 125°13'5618.2
2017-Feb-08 09:26N 47°08' W 124°60'1618.7
2017-Feb-08 08:33N 46°54' W 124°50'1918.8
2017-Feb-08 07:33N 46°37' W 124°38'1918.7
2017-Feb-08 06:33N 46°21' W 124°23'1413.7
2017-Feb-08 05:33N 46°15' W 124°05'1110.5
2017-Feb-08 04:33N 46°12' W 123°51'9 9.4
2017-Feb-08 03:33N 46°16' W 123°38'1111.0
2017-Feb-08 02:33N 46°10' W 123°25'1414.4
2017-Feb-08 01:33N 46°10' W 123°04'1313.2
2017-Feb-08 00:33N 45°60' W 122°51'1413.9
2017-Feb-07 23:33N 45°46' W 122°46'1110.6
2017-Feb-07 22:34N 45°36' W 122°47'0 0.0
2017-Feb-07 21:31N 45°36' W 122°47'0 0.0
2017-Feb-07 20:22N 45°36' W 122°47'0 0.0
2017-Feb-07 19:28N 45°36' W 122°47'0 0.0
2017-Feb-07 18:31N 45°36' W 122°47'0 0.0
2017-Feb-07 17:31N 45°36' W 122°47'0 0.0
2017-Feb-07 16:28N 45°36' W 122°47'0 0.0
2017-Feb-07 15:28N 45°36' W 122°47'0 0.0
2017-Feb-07 14:31N 45°36' W 122°47'0 0.0
2017-Feb-07 13:25N 45°36' W 122°47'0 0.0
2017-Feb-07 12:31N 45°36' W 122°47'0 0.0
2017-Feb-07 11:31N 45°36' W 122°47'0 0.0
2017-Feb-07 10:31N 45°36' W 122°47'0 0.0
2017-Feb-07 09:31N 45°36' W 122°47'0 0.0
2017-Feb-07 08:25N 45°36' W 122°47'0 0.0
2017-Feb-07 07:31N 45°36' W 122°47'0 0.0
2017-Feb-07 06:31N 45°36' W 122°47'0 0.0
2017-Feb-07 05:31N 45°36' W 122°47'0 0.0
2017-Feb-07 04:28N 45°36' W 122°47'0 0.0
2017-Feb-07 03:31N 45°36' W 122°47'0 0.0
2017-Feb-07 02:28N 45°36' W 122°47'0 0.0
2017-Feb-07 01:32N 45°36' W 122°47'0 0.0
2017-Feb-07 00:28N 45°36' W 122°47'0 0.0
2017-Feb-06 23:31N 45°36' W 122°47'0 0.1
2017-Feb-06 22:34N 45°36' W 122°47'7 7.3
2017-Feb-06 21:34N 45°43' W 122°46'1211.9
2017-Feb-06 20:33N 45°55' W 122°49'1111.4
2017-Feb-06 19:34N 46°05' W 122°55'1312.5
2017-Feb-06 18:33N 46°11' W 123°11'1010.2
2017-Feb-06 17:33N 46°12' W 123°26'1212.1
2017-Feb-06 16:34N 46°14' W 123°43'1111.0
2017-Feb-06 15:34N 46°14' W 123°59'1414.0
2017-Feb-06 14:33N 46°12' W 124°19'3 2.5
2017-Feb-06 13:34N 46°11' W 124°22'1010.3
2017-Feb-06 12:34N 46°11' W 124°37'1616.2
2017-Feb-06 11:33N 46°11' W 125°00'1616.3
2017-Feb-06 10:34N 46°12' W 125°24'  

Dump ship's entire track history